Time;durP1;ratioP1;P1;durP2;ratioP2;P2;SDS_P1;SDS_P2;PMS_P1;PMS_P2;Temp;Humidity;BMP_temperature;BMP_pressure;BME280_temperature;BME280_humidity;BME280_pressure;Samples;Min_cycle;Max_cycle;Signal;HPM_P1;HPM_P2
2022/03/29 00:00:40;;;;;;;17.20;12.23;;;;;;;9.44;69.85;97940.47;4154208;28;21021;-83
2022/03/29 00:02:43;;;;;;;16.57;12.37;;;;;;;9.40;69.90;97944.22;4191005;28;21212;-84
2022/03/29 00:04:48;;;;;;;15.37;11.13;;;;;;;9.34;70.48;97938.59;4152929;28;20644;-83
2022/03/29 00:06:52;;;;;;;18.07;12.17;;;;;;;9.31;71.16;97941.41;4159046;28;21215;-84
2022/03/29 00:08:56;;;;;;;16.63;10.97;;;;;;;9.30;70.89;97932.75;4140346;28;20642;-83
2022/03/29 00:10:59;;;;;;;17.60;11.57;;;;;;;9.28;70.72;97928.59;4168593;28;20803;-83
2022/03/29 00:13:02;;;;;;;16.57;11.73;;;;;;;9.27;69.81;97935.56;4152218;28;20678;-83
2022/03/29 00:15:07;;;;;;;16.30;11.30;;;;;;;9.24;69.61;97930.56;4157834;28;20658;-83
2022/03/29 00:17:10;;;;;;;14.83;11.13;;;;;;;9.20;70.33;97929.09;4159069;28;20653;-82
2022/03/29 00:19:32;;;;;;;14.87;10.73;;;;;;;9.17;70.76;97915.44;4152289;28;20652;-83
2022/03/29 00:21:56;;;;;;;20.37;12.33;;;;;;;9.10;71.15;97909.81;4155347;28;21210;-83
2022/03/29 00:23:59;;;;;;;16.73;11.60;;;;;;;9.08;70.25;97910.84;4155792;28;20658;-83
2022/03/29 00:26:03;;;;;;;16.87;11.37;;;;;;;9.09;71.88;97910.75;4152910;28;21263;-84
2022/03/29 00:28:06;;;;;;;15.23;11.30;;;;;;;9.11;70.19;97908.03;4157941;28;21035;-83
2022/03/29 00:30:11;;;;;;;16.20;11.70;;;;;;;9.11;70.12;97914.09;4172990;28;21316;-84
2022/03/29 00:32:15;;;;;;;13.70;11.00;;;;;;;9.08;70.20;97909.09;4133090;28;20670;-83
2022/03/29 00:34:18;;;;;;;15.97;11.80;;;;;;;9.07;71.39;97907.41;4167337;28;20714;-84
2022/03/29 00:36:21;;;;;;;14.03;10.03;;;;;;;9.03;71.19;97905.94;4139756;28;20652;-83
2022/03/29 00:38:26;;;;;;;14.97;11.30;;;;;;;9.03;72.18;97899.91;4153053;28;20642;-84
2022/03/29 00:40:30;;;;;;;13.23;11.03;;;;;;;9.01;70.99;97900.00;4154134;28;20660;-83
2022/03/29 00:42:34;;;;;;;18.20;11.43;;;;;;;9.02;72.42;97893.03;4154748;28;20694;-83
2022/03/29 00:44:38;;;;;;;15.10;10.57;;;;;;;9.02;72.19;97898.22;4155502;28;20708;-83
2022/03/29 00:46:41;;;;;;;14.13;10.73;;;;;;;8.99;71.91;97893.22;4154219;28;20653;-83
2022/03/29 00:48:45;;;;;;;18.63;11.73;;;;;;;8.97;70.76;97882.09;4166589;28;20736;-83
2022/03/29 00:50:48;;;;;;;16.20;11.47;;;;;;;8.94;71.94;97879.69;4151865;28;21593;-84
2022/03/29 00:52:52;;;;;;;14.27;11.10;;;;;;;8.92;71.72;97885.97;4171527;28;20644;-83
2022/03/29 00:54:57;;;;;;;16.90;11.33;;;;;;;8.91;72.57;97884.28;4165471;28;20655;-84
2022/03/29 00:57:01;;;;;;;14.93;10.70;;;;;;;8.89;71.01;97880.94;4154723;28;20648;-84
2022/03/29 00:59:05;;;;;;;15.03;11.37;;;;;;;8.83;72.13;97884.78;4155465;28;21473;-84
2022/03/29 01:01:10;;;;;;;14.67;10.87;;;;;;;8.83;72.50;97878.75;4151221;28;21257;-84
2022/03/29 01:03:15;;;;;;;13.80;11.37;;;;;;;8.77;73.05;97872.16;4153614;28;21224;-83
2022/03/29 01:05:19;;;;;;;15.70;11.50;;;;;;;8.72;71.92;97866.44;4142905;28;20668;-83
2022/03/29 01:07:24;;;;;;;15.30;11.10;;;;;;;8.68;72.41;97864.13;4183417;28;20750;-84
2022/03/29 01:09:28;;;;;;;14.63;10.47;;;;;;;8.65;72.20;97859.13;4152496;28;20683;-84
2022/03/29 01:11:33;;;;;;;15.70;11.03;;;;;;;8.63;71.94;97853.19;4152554;28;20754;-83
2022/03/29 01:13:37;;;;;;;18.30;11.33;;;;;;;8.61;72.60;97853.28;4172861;28;20711;-83
2022/03/29 01:15:41;;;;;;;18.17;12.37;;;;;;;8.61;73.05;97847.25;4159345;28;20679;-83
2022/03/29 01:17:45;;;;;;;15.90;11.50;;;;;;;8.59;72.77;97842.16;4140296;28;20755;-84
2022/03/29 01:19:50;;;;;;;17.30;10.63;;;;;;;8.55;73.63;97843.31;4149598;28;20669;-83
2022/03/29 01:21:59;;;;;;;18.73;10.87;;;;;;;8.54;73.44;97840.81;4155623;28;20654;-83
2022/03/29 01:24:03;;;;;;;15.70;11.20;;;;;;;8.53;73.76;97839.94;4152885;28;20623;-83
2022/03/29 01:26:06;;;;;;;15.10;11.80;;;;;;;8.51;73.04;97841.81;4170448;28;20648;-83
2022/03/29 01:28:09;;;;;;;15.30;11.30;;;;;;;8.48;73.87;97831.63;4153542;28;20665;-83
2022/03/29 01:30:13;;;;;;;16.00;11.17;;;;;;;8.49;73.68;97840.25;4154662;28;21258;-83
2022/03/29 01:32:17;;;;;;;15.63;10.30;;;;;;;8.47;73.81;97826.53;4155505;28;20666;-84
2022/03/29 01:34:21;;;;;;;13.73;10.47;;;;;;;8.46;74.30;97825.72;4137154;28;20719;-83
2022/03/29 01:36:24;;;;;;;15.40;10.70;;;;;;;8.43;73.15;97822.44;4159752;28;20655;-84
2022/03/29 01:38:29;;;;;;;15.30;11.03;;;;;;;8.43;74.34;97826.81;4151481;28;20666;-83
2022/03/29 01:40:32;;;;;;;15.20;11.10;;;;;;;8.45;74.24;97820.59;4155483;28;20661;-83
2022/03/29 01:42:36;;;;;;;15.17;10.57;;;;;;;8.46;72.32;97810.13;4153324;28;20661;-83
2022/03/29 01:44:39;;;;;;;13.60;10.60;;;;;;;8.44;74.18;97807.72;4157810;28;21311;-83
2022/03/29 01:46:42;;;;;;;16.60;11.30;;;;;;;8.41;73.57;97803.53;4155000;28;20679;-83
2022/03/29 01:48:45;;;;;;;14.80;10.67;;;;;;;8.42;73.85;97801.75;4175131;28;20662;-82
2022/03/29 01:50:49;;;;;;;14.33;10.20;;;;;;;8.41;74.01;97800.13;4137997;28;21550;-82
2022/03/29 01:52:52;;;;;;;14.60;10.83;;;;;;;8.41;73.08;97797.53;4142490;28;20665;-84
2022/03/29 01:54:57;;;;;;;16.70;12.10;;;;;;;8.40;73.12;97794.06;4155002;28;20742;-83
2022/03/29 01:57:00;;;;;;;13.30;10.20;;;;;;;8.41;74.41;97795.75;4154814;28;20657;-83
2022/03/29 01:59:05;;;;;;;14.40;10.33;;;;;;;8.41;74.15;97790.53;4160736;28;20854;-83
2022/03/29 02:01:09;;;;;;;14.30;10.80;;;;;;;8.38;74.54;97795.94;4156240;28;20658;-83
2022/03/29 02:03:12;;;;;;;17.10;10.83;;;;;;;8.37;72.75;97791.66;4156237;28;20647;-83
2022/03/29 02:05:16;;;;;;;16.80;10.43;;;;;;;8.37;73.57;97783.88;4148681;28;21311;-83
2022/03/29 02:07:19;;;;;;;13.97;9.87;;;;;;;8.34;73.47;97786.66;4190208;28;21337;-83
2022/03/29 02:09:22;;;;;;;16.60;10.90;;;;;;;8.33;72.72;97785.03;4153138;28;20769;-83
2022/03/29 02:11:27;;;;;;;15.00;10.77;;;;;;;8.33;74.06;97790.22;4157366;28;20661;-84
2022/03/29 02:13:30;;;;;;;14.03;10.50;;;;;;;8.31;73.30;97786.03;4141503;28;20662;-83
2022/03/29 02:15:33;;;;;;;15.50;10.67;;;;;;;8.31;73.79;97793.81;4173141;28;20682;-83
2022/03/29 02:17:36;;;;;;;13.50;10.40;;;;;;;8.27;73.66;97785.41;4152497;28;20649;-83
2022/03/29 02:19:40;;;;;;;14.87;10.70;;;;;;;8.25;73.58;97782.06;4152340;28;21070;-83
2022/03/29 02:21:43;;;;;;;16.30;10.90;;;;;;;8.25;73.52;97778.63;4156412;28;20645;-84
2022/03/29 02:23:46;;;;;;;14.67;10.67;;;;;;;8.24;74.46;97774.34;4156326;28;20646;-82
2022/03/29 02:25:49;;;;;;;14.87;10.97;;;;;;;8.23;73.33;97773.53;4173294;28;20694;-83
2022/03/29 02:27:55;;;;;;;18.97;10.67;;;;;;;8.18;74.45;97770.41;4155551;28;20650;-83
2022/03/29 02:29:58;;;;;;;16.13;11.50;;;;;;;8.13;74.83;97772.47;4159315;28;20648;-83
2022/03/29 02:32:01;;;;;;;13.53;10.60;;;;;;;8.10;74.77;97762.25;4153086;28;21334;-83
2022/03/29 02:34:04;;;;;;;13.63;10.23;;;;;;;8.07;75.10;97762.44;4152899;28;20777;-83
2022/03/29 02:36:09;;;;;;;18.10;10.70;;;;;;;8.06;74.06;97760.78;4170195;28;20691;-83
2022/03/29 02:38:13;;;;;;;18.47;11.07;;;;;;;8.04;74.74;97752.25;4157148;28;20658;-83
2022/03/29 02:40:17;;;;;;;13.43;9.27;;;;;;;8.08;74.47;97750.28;4158081;28;20645;-83
2022/03/29 02:42:20;;;;;;;16.23;11.47;;;;;;;8.08;75.31;97761.50;4158886;28;20653;-83
2022/03/29 02:44:25;;;;;;;14.80;10.97;;;;;;;8.08;75.13;97747.69;4155518;28;20666;-84
2022/03/29 02:46:28;;;;;;;14.67;11.20;;;;;;;8.07;73.54;97746.88;4152481;28;20645;-83
2022/03/29 02:48:31;;;;;;;16.53;10.97;;;;;;;8.04;74.34;97760.03;4151748;28;21062;-82
2022/03/29 02:50:34;;;;;;;18.20;10.33;;;;;;;8.03;74.27;97745.38;4157177;28;21011;-83
2022/03/29 02:52:43;;;;;;;16.17;11.17;;;;;;;8.02;75.30;97740.28;4157985;28;20759;-82
2022/03/29 02:54:47;;;;;;;13.17;9.77;;;;;;;7.99;75.14;97736.13;4152708;28;20662;-83
2022/03/29 02:56:50;;;;;;;16.07;11.63;;;;;;;7.99;74.62;97740.50;4156314;28;20754;-84
2022/03/29 02:58:53;;;;;;;21.27;11.30;;;;;;;7.98;75.66;97747.44;4156321;28;20664;-83
2022/03/29 03:00:58;;;;;;;14.97;10.87;;;;;;;7.97;74.83;97740.59;4154144;28;20760;-83
2022/03/29 03:03:03;;;;;;;16.40;11.57;;;;;;;7.96;75.52;97738.09;4155491;28;20642;-83
2022/03/29 03:05:08;;;;;;;14.87;11.33;;;;;;;7.97;74.86;97745.78;4187901;28;20652;-83
2022/03/29 03:07:12;;;;;;;16.27;10.73;;;;;;;7.98;75.10;97738.81;4159470;28;20653;-83
2022/03/29 03:09:15;;;;;;;14.43;10.70;;;;;;;7.96;75.02;97744.09;4152592;28;20656;-83
2022/03/29 03:11:18;;;;;;;16.50;10.60;;;;;;;7.96;75.20;97739.84;4156204;28;20671;-83
2022/03/29 03:13:22;;;;;;;16.30;10.50;;;;;;;7.93;74.60;97742.66;4155363;28;20661;-83
2022/03/29 03:15:25;;;;;;;14.77;10.23;;;;;;;7.92;74.74;97748.75;4155713;28;21261;-83
2022/03/29 03:17:30;;;;;;;13.03;9.97;;;;;;;7.89;74.97;97746.34;4158176;28;20659;-83
2022/03/29 03:19:34;;;;;;;15.87;10.53;;;;;;;7.85;75.56;97740.53;4166111;28;20694;-84
2022/03/29 03:21:37;;;;;;;16.53;11.07;;;;;;;7.84;75.65;97743.22;4155038;28;20690;-83
2022/03/29 03:23:40;;;;;;;13.03;10.70;;;;;;;7.82;75.46;97740.72;4155254;28;20656;-83
2022/03/29 03:25:44;;;;;;;15.87;11.50;;;;;;;7.81;76.09;97741.66;4173765;28;20688;-83
2022/03/29 03:27:47;;;;;;;12.27;10.50;;;;;;;7.81;75.81;97736.47;4153975;28;21239;-84
2022/03/29 03:29:50;;;;;;;15.57;10.63;;;;;;;7.81;75.09;97739.06;4154779;28;20646;-83
2022/03/29 03:31:53;;;;;;;14.60;10.17;;;;;;;7.83;76.09;97741.56;4189277;28;20714;-83
2022/03/29 03:33:58;;;;;;;14.63;10.83;;;;;;;7.84;75.40;97733.66;4153233;28;20666;-83
2022/03/29 03:36:01;;;;;;;13.47;10.73;;;;;;;7.86;75.52;97736.16;4156572;28;20647;-83
2022/03/29 03:38:05;;;;;;;15.93;11.50;;;;;;;7.85;75.44;97737.94;4157490;28;20760;-83
2022/03/29 03:40:10;;;;;;;15.23;10.97;;;;;;;7.84;74.92;97732.84;4169938;28;21502;-84
2022/03/29 03:42:13;;;;;;;15.97;10.80;;;;;;;7.80;74.93;97734.78;4150074;28;21121;-83
2022/03/29 03:44:16;;;;;;;17.60;10.57;;;;;;;7.75;75.30;97728.22;4156577;28;20654;-84
2022/03/29 03:46:19;;;;;;;17.10;11.53;;;;;;;7.65;74.97;97733.19;4158822;28;20657;-83
2022/03/29 03:48:23;;;;;;;14.27;10.50;;;;;;;7.58;74.66;97718.91;4170688;28;21275;-82
2022/03/29 03:50:28;;;;;;;18.03;10.10;;;;;;;7.58;75.33;97720.69;4156026;28;20656;-82
2022/03/29 03:52:31;;;;;;;15.55;11.20;;;;;;;7.55;75.23;97719.09;4157480;28;20757;-82
2022/03/29 03:54:34;;;;;;;16.53;10.17;;;;;;;7.57;75.47;97719.00;4156579;28;20744;-82
2022/03/29 03:56:38;;;;;;;16.35;11.20;;;;;;;7.62;76.16;97719.53;4153689;28;20762;-83
2022/03/29 03:58:41;;;;;;;13.57;10.73;;;;;;;7.64;76.06;97715.09;4153297;28;20226;-83
2022/03/29 04:00:44;;;;;;;12.40;10.00;;;;;;;7.65;75.45;97708.97;4155021;28;20660;-84
2022/03/29 04:02:50;;;;;;;19.30;11.33;;;;;;;7.62;76.11;97714.34;4185663;28;21212;-83
2022/03/29 04:04:54;;;;;;;14.77;9.80;;;;;;;7.60;75.55;97713.63;4171976;28;20751;-83
2022/03/29 04:06:59;;;;;;;13.47;9.70;;;;;;;7.64;76.01;97715.09;4151351;28;21274;-83
2022/03/29 04:09:02;;;;;;;13.10;10.10;;;;;;;7.59;76.16;97712.81;4151553;28;20767;-83
2022/03/29 04:11:06;;;;;;;14.20;10.43;;;;;;;7.62;76.25;97719.53;4154629;28;20721;-83
2022/03/29 04:13:09;;;;;;;15.63;10.23;;;;;;;7.61;75.65;97710.94;4173458;28;20663;-83
2022/03/29 04:15:12;;;;;;;14.73;10.40;;;;;;;7.59;75.52;97701.56;4152034;28;20695;-83
2022/03/29 04:17:16;;;;;;;13.47;10.53;;;;;;;7.56;76.05;97696.56;4159296;28;20647;-83
2022/03/29 04:19:19;;;;;;;15.10;10.50;;;;;;;7.48;76.14;97697.03;4156947;28;21071;-82
2022/03/29 04:21:22;;;;;;;15.30;10.57;;;;;;;7.46;76.00;97698.09;4153186;28;20752;-82
2022/03/29 04:23:27;;;;;;;20.73;11.57;;;;;;;7.46;76.53;97700.69;4155505;28;21206;-83
2022/03/29 04:25:30;;;;;;;20.13;11.20;;;;;;;7.46;76.65;97705.03;4154203;28;20680;-83
2022/03/29 04:27:33;;;;;;;16.67;10.73;;;;;;;7.46;75.99;97703.28;4157348;28;20650;-84
2022/03/29 04:29:37;;;;;;;15.40;10.10;;;;;;;7.48;76.53;97704.00;4156350;28;20686;-83
2022/03/29 04:31:45;;;;;;;13.20;10.60;;;;;;;7.49;76.85;97692.72;4172199;28;21064;-84
2022/03/29 04:33:48;;;;;;;15.70;10.77;;;;;;;7.48;76.58;97696.22;4157025;28;21453;-83
2022/03/29 04:35:51;;;;;;;16.13;11.67;;;;;;;7.48;76.60;97691.84;4152946;28;20653;-82
2022/03/29 04:37:55;;;;;;;17.40;11.03;;;;;;;7.47;76.83;97686.75;4171411;28;20674;-83
2022/03/29 04:39:59;;;;;;;15.40;10.60;;;;;;;7.45;76.51;97685.22;4153710;28;20760;-83
2022/03/29 04:42:03;;;;;;;14.70;11.50;;;;;;;7.43;76.98;97682.72;4136859;28;21347;-83
2022/03/29 04:44:10;;;;;;;16.53;11.40;;;;;;;7.41;77.27;97681.97;4154468;28;20700;-84
2022/03/29 04:46:14;;;;;;;17.02;11.43;;;;;;;7.39;77.10;97676.03;4155057;28;20662;-83
2022/03/29 04:48:17;;;;;;;15.87;11.70;;;;;;;7.39;76.88;97683.81;4154834;28;20223;-83
2022/03/29 04:50:20;;;;;;;14.50;11.20;;;;;;;7.37;76.84;97675.31;4156140;28;21225;-82
2022/03/29 04:52:23;;;;;;;14.00;10.87;;;;;;;7.36;77.09;97673.66;4141515;28;20646;-83
2022/03/29 04:54:26;;;;;;;16.83;11.53;;;;;;;7.34;77.11;97672.91;4172450;28;20651;-83
2022/03/29 04:56:33;;;;;;;19.50;11.43;;;;;;;7.32;76.91;97677.38;4154966;28;20684;-83
2022/03/29 04:58:36;;;;;;;16.70;11.50;;;;;;;7.31;77.10;97672.28;4156464;28;20749;-83
2022/03/29 05:00:39;;;;;;;17.03;12.10;;;;;;;7.28;77.23;97672.47;4156213;28;20654;-83
2022/03/29 05:02:43;;;;;;;16.80;11.33;;;;;;;7.28;77.33;97672.47;4157488;28;20655;-83
2022/03/29 05:04:46;;;;;;;16.77;12.87;;;;;;;7.25;77.54;97670.06;4154015;28;20645;-83
2022/03/29 05:06:50;;;;;;;18.33;12.80;;;;;;;7.24;77.52;97668.41;4155405;28;20659;-83
2022/03/29 05:08:53;;;;;;;16.67;11.97;;;;;;;7.20;77.72;97666.91;4182656;28;21265;-83
2022/03/29 05:10:56;;;;;;;17.30;12.53;;;;;;;7.21;77.62;97673.78;4151285;28;20683;-83
2022/03/29 05:13:01;;;;;;;18.07;11.07;;;;;;;7.19;77.82;97667.84;4140924;28;20749;-83
2022/03/29 05:15:05;;;;;;;20.47;12.17;;;;;;;7.18;77.62;97666.19;4160286;28;20646;-83
2022/03/29 05:17:08;;;;;;;17.73;12.57;;;;;;;7.20;77.80;97667.75;4157215;28;20662;-83
2022/03/29 05:19:11;;;;;;;22.60;13.27;;;;;;;7.18;77.69;97661.81;4158963;28;21144;-83
2022/03/29 05:21:17;;;;;;;17.93;11.83;;;;;;;7.16;78.42;97665.44;4172293;28;20653;-83
2022/03/29 05:23:20;;;;;;;16.80;11.67;;;;;;;7.16;77.97;97660.25;4155195;28;20648;-83
2022/03/29 05:25:26;;;;;;;16.57;11.47;;;;;;;7.16;78.13;97666.28;4169391;28;20780;-83
2022/03/29 05:27:29;;;;;;;18.37;12.30;;;;;;;7.19;78.07;97660.91;4169528;28;20647;-83
2022/03/29 05:29:34;;;;;;;23.40;12.90;;;;;;;7.26;77.89;97661.34;4159688;28;20661;-83
2022/03/29 05:31:37;;;;;;;18.30;12.20;;;;;;;7.27;77.42;97668.19;4153454;28;20649;-83
2022/03/29 05:33:41;;;;;;;18.63;12.50;;;;;;;7.29;78.03;97668.94;4172691;28;20669;-84
2022/03/29 05:35:45;;;;;;;20.13;12.60;;;;;;;7.32;78.46;97669.59;4140413;28;20653;-84
2022/03/29 05:37:49;;;;;;;16.50;11.87;;;;;;;7.40;77.35;97675.13;4187883;28;21294;-83
2022/03/29 05:39:52;;;;;;;21.20;12.90;;;;;;;7.43;77.59;97681.88;4189972;28;20654;-84
2022/03/29 05:41:55;;;;;;;17.70;11.60;;;;;;;7.43;78.34;97679.28;4160664;28;20689;-83
2022/03/29 05:43:59;;;;;;;18.30;11.97;;;;;;;7.43;78.76;97674.94;4155711;28;20665;-84
2022/03/29 05:50:48;;;;;;;24.50;12.40;;;;;;;7.56;78.13;97675.81;4157577;28;20659;-81
2022/03/29 05:52:52;;;;;;;17.60;11.13;;;;;;;7.59;77.77;97670.44;4172019;28;21128;-83
2022/03/29 05:54:57;;;;;;;20.47;12.77;;;;;;;7.62;77.68;97671.09;4163317;28;20657;-87
2022/03/29 05:57:03;;;;;;;22.10;12.40;;;;;;;7.69;78.21;97667.16;4153207;28;20719;-84
2022/03/29 05:59:08;;;;;;;22.63;13.60;;;;;;;7.79;77.58;97680.41;4158752;28;20649;-83
2022/03/29 06:01:13;;;;;;;22.97;12.93;;;;;;;7.90;77.64;97677.94;4156164;28;20685;-85
2022/03/29 06:03:17;;;;;;;27.03;12.80;;;;;;;8.00;77.96;97680.69;4173621;28;20660;-85
2022/03/29 06:05:21;;;;;;;19.17;12.50;;;;;;;8.12;75.93;97677.31;4157210;28;20657;-84
2022/03/29 06:07:24;;;;;;;20.27;12.53;;;;;;;8.24;75.62;97680.84;4145926;28;20871;-86
2022/03/29 06:09:28;;;;;;;22.33;13.60;;;;;;;8.37;75.71;97674.75;4140727;28;20635;-84
2022/03/29 06:11:31;;;;;;;19.00;12.37;;;;;;;8.43;76.07;97671.75;4158843;28;20747;-84
2022/03/29 06:13:35;;;;;;;17.77;11.83;;;;;;;8.49;76.13;97668.75;4177093;28;20638;-84
2022/03/29 06:15:38;;;;;;;21.40;12.70;;;;;;;8.53;75.56;97678.00;4178097;28;20780;-83
2022/03/29 06:17:43;;;;;;;24.00;11.90;;;;;;;8.58;75.93;97663.75;4159870;28;20650;-83
2022/03/29 06:19:46;;;;;;;19.50;12.83;;;;;;;8.65;75.24;97672.00;4158082;28;21076;-84
2022/03/29 06:21:50;;;;;;;17.67;12.67;;;;;;;8.73;75.20;97672.31;4161494;28;20652;-83
2022/03/29 06:23:53;;;;;;;20.97;12.40;;;;;;;8.81;76.46;97676.06;4162984;28;20627;-84
2022/03/29 06:25:57;;;;;;;17.70;12.30;;;;;;;8.84;75.14;97682.78;4144069;28;21079;-83
2022/03/29 06:28:00;;;;;;;20.23;13.20;;;;;;;8.86;76.94;97681.75;4176995;28;21101;-84
2022/03/29 06:30:04;;;;;;;18.13;12.80;;;;;;;8.89;76.00;97671.16;4156366;28;20677;-83
2022/03/29 06:32:08;;;;;;;23.37;13.13;;;;;;;8.95;76.83;97673.34;4162789;28;20653;-83
2022/03/29 06:34:13;;;;;;;20.50;12.93;;;;;;;9.01;76.02;97667.72;4173736;28;21341;-84
2022/03/29 06:36:16;;;;;;;20.03;13.40;;;;;;;9.07;75.75;97672.50;4152364;28;20782;-85
2022/03/29 06:38:22;;;;;;;20.83;14.70;;;;;;;9.13;74.08;97679.88;4156798;28;21326;-87
2022/03/29 06:40:26;;;;;;;17.20;12.63;;;;;;;9.20;74.33;97665.50;4151037;28;20648;-86
2022/03/29 06:42:30;;;;;;;22.37;13.00;;;;;;;9.33;74.15;97681.91;4157391;28;20671;-83
2022/03/29 06:44:34;;;;;;;21.40;12.73;;;;;;;9.41;73.80;97683.03;4158634;28;20698;-82
2022/03/29 06:46:39;;;;;;;19.77;13.23;;;;;;;9.47;73.50;97686.06;4158901;28;20648;-83
2022/03/29 06:48:44;;;;;;;27.33;13.50;;;;;;;9.52;72.89;97683.94;4177507;28;20647;-82
2022/03/29 06:50:49;;;;;;;17.40;12.93;;;;;;;9.58;74.08;97688.72;4154776;28;20763;-86
2022/03/29 06:52:52;;;;;;;17.63;12.17;;;;;;;9.65;73.11;97683.91;4169565;28;20666;-85
2022/03/29 06:55:01;;;;;;;17.67;12.60;;;;;;;9.75;73.61;97685.75;4155815;28;20718;-83
2022/03/29 06:57:05;;;;;;;20.90;13.57;;;;;;;9.87;73.30;97690.91;4160704;28;21227;-83
2022/03/29 06:59:08;;;;;;;16.83;13.13;;;;;;;9.97;73.27;97694.53;4192086;28;21271;-83
2022/03/29 07:01:12;;;;;;;22.07;13.67;;;;;;;10.07;73.27;97692.94;4143409;28;20671;-83
2022/03/29 07:03:15;;;;;;;18.07;13.30;;;;;;;10.16;73.38;97687.03;4139804;28;20653;-86
2022/03/29 07:05:20;;;;;;;19.43;13.10;;;;;;;10.28;73.77;97683.53;4172103;28;20653;-87
2022/03/29 07:07:25;;;;;;;25.00;17.00;;;;;;;10.34;74.00;97690.91;4168780;28;20648;-86
2022/03/29 07:11:53;;;;;;;20.00;14.40;;;;;;;10.39;74.31;97681.81;4155225;28;20658;-86
2022/03/29 07:13:56;;;;;;;19.13;14.20;;;;;;;10.45;74.72;97683.97;4150018;28;20654;-85
2022/03/29 07:16:00;;;;;;;21.93;13.70;;;;;;;10.53;73.49;97679.00;4157151;28;20680;-86
2022/03/29 07:18:03;;;;;;;18.70;14.63;;;;;;;10.65;73.21;97678.09;4138210;28;20729;-84
2022/03/29 07:20:07;;;;;;;23.30;14.10;;;;;;;10.77;73.91;97684.16;4153696;28;20633;-86
2022/03/29 07:22:10;;;;;;;19.97;14.00;;;;;;;10.87;73.17;97684.19;4141015;28;20655;-86
2022/03/29 07:24:15;;;;;;;17.40;14.30;;;;;;;10.91;72.51;97688.19;4156986;28;20697;-85
2022/03/29 07:26:18;;;;;;;18.20;13.53;;;;;;;10.98;73.14;97684.19;4158375;28;20641;-86
2022/03/29 07:28:23;;;;;;;20.10;13.83;;;;;;;11.07;73.08;97683.50;4192898;28;20647;-85
2022/03/29 07:30:26;;;;;;;19.30;14.57;;;;;;;11.17;73.63;97684.44;4159537;28;20660;-85
2022/03/29 07:32:29;;;;;;;27.63;15.30;;;;;;;11.23;73.62;97694.41;4157989;28;20658;-86
2022/03/29 07:34:35;;;;;;;20.30;13.93;;;;;;;11.28;72.81;97692.28;4174969;28;21316;-87
2022/03/29 07:36:38;;;;;;;25.77;15.70;;;;;;;11.34;73.15;97694.41;4160608;28;20650;-86
2022/03/29 07:38:42;;;;;;;22.43;14.63;;;;;;;11.39;72.51;97692.28;4134714;28;20681;-86
2022/03/29 07:40:46;;;;;;;19.57;15.10;;;;;;;11.44;72.75;97693.59;4156916;28;20650;-86
2022/03/29 07:42:59;;;;;;;21.90;15.40;;;;;;;11.49;74.02;97703.69;4155433;28;20635;-87
2022/03/29 07:45:03;;;;;;;17.73;13.90;;;;;;;11.56;73.18;97700.50;4160154;28;20646;-85
2022/03/29 07:47:06;;;;;;;24.17;14.70;;;;;;;11.66;73.12;97700.59;4143596;28;20635;-87
2022/03/29 07:49:09;;;;;;;21.40;14.90;;;;;;;11.73;71.75;97704.34;4149707;28;21242;-86
2022/03/29 07:51:32;;;;;;;24.80;15.33;;;;;;;11.81;71.77;97705.44;4154498;28;21155;-86
2022/03/29 07:53:36;;;;;;;23.30;14.50;;;;;;;11.86;69.34;97701.50;4189552;28;20648;-86
2022/03/29 07:55:40;;;;;;;21.03;14.50;;;;;;;11.94;68.29;97701.72;4153732;28;21227;-85
2022/03/29 07:57:50;;;;;;;22.03;15.07;;;;;;;12.01;69.17;97700.28;4155718;28;20645;-83
2022/03/29 07:59:54;;;;;;;21.23;13.50;;;;;;;12.13;67.87;97690.63;4158782;28;20760;-83
2022/03/29 08:01:57;;;;;;;22.63;14.50;;;;;;;12.24;68.95;97694.84;4170907;28;20742;-84
2022/03/29 08:04:01;;;;;;;18.93;15.60;;;;;;;12.44;70.71;97695.84;4170075;28;20654;-84
2022/03/29 08:06:05;;;;;;;22.37;14.83;;;;;;;12.61;69.28;97695.28;4172030;28;20646;-84
2022/03/29 08:08:10;;;;;;;21.30;14.13;;;;;;;12.80;69.23;97691.00;4159091;28;20666;-84
2022/03/29 08:10:13;;;;;;;18.13;14.70;;;;;;;13.00;67.51;97692.81;4153682;28;21031;-85
2022/03/29 08:12:17;;;;;;;21.70;15.90;;;;;;;13.18;69.21;97692.94;4167938;28;20642;-85
2022/03/29 08:14:21;;;;;;;28.60;15.93;;;;;;;13.30;67.19;97696.28;4159490;28;20639;-86
2022/03/29 08:16:27;;;;;;;18.77;16.50;;;;;;;13.37;68.23;97695.63;4155382;28;20660;-86
2022/03/29 08:18:30;;;;;;;23.07;17.30;;;;;;;13.42;66.65;97695.22;4145125;28;20649;-84
2022/03/29 08:20:33;;;;;;;23.63;16.67;;;;;;;13.48;66.86;97698.16;4137136;28;20745;-85
2022/03/29 08:22:37;;;;;;;22.87;16.10;;;;;;;13.58;66.46;97695.59;4154937;28;20698;-85
2022/03/29 08:24:40;;;;;;;31.00;24.07;;;;;;;13.68;66.93;97695.47;4169662;28;20638;-85
2022/03/29 08:26:43;;;;;;;19.97;15.27;;;;;;;13.86;64.71;97696.50;4141137;28;21565;-84
2022/03/29 08:28:47;;;;;;;19.60;15.30;;;;;;;13.98;62.87;97698.03;4153251;28;20760;-84
2022/03/29 08:30:52;;;;;;;19.20;15.20;;;;;;;14.06;62.36;97692.97;4157311;28;20755;-83
2022/03/29 08:32:57;;;;;;;21.50;15.23;;;;;;;14.18;61.74;97691.91;4159182;28;20651;-83
2022/03/29 08:35:05;;;;;;;19.50;14.87;;;;;;;14.26;60.58;97684.16;4158930;28;20653;-84
2022/03/29 08:37:08;;;;;;;24.40;16.03;;;;;;;14.26;59.64;97686.78;4159676;28;20671;-84
2022/03/29 08:39:12;;;;;;;21.17;15.67;;;;;;;14.25;60.27;97683.34;4159112;28;20648;-85
2022/03/29 08:41:15;;;;;;;20.60;15.50;;;;;;;14.31;60.97;97676.69;4147877;28;21377;-85
2022/03/29 08:43:19;;;;;;;20.87;15.80;;;;;;;14.43;59.80;97670.34;4159053;28;20656;-85
2022/03/29 08:45:26;;;;;;;22.43;14.20;;;;;;;14.52;60.12;97674.78;4135248;28;20654;-85
2022/03/29 08:47:31;;;;;;;24.80;14.80;;;;;;;14.65;60.26;97671.72;4134759;28;20660;-84
2022/03/29 08:49:35;;;;;;;21.53;14.77;;;;;;;14.83;61.98;97680.53;4156221;28;20681;-86
2022/03/29 08:51:39;;;;;;;21.80;15.30;;;;;;;15.00;60.77;97673.72;4156873;28;20653;-87
2022/03/29 08:53:45;;;;;;;25.70;16.73;;;;;;;15.12;61.60;97683.94;4136488;28;20658;-87
2022/03/29 08:55:48;;;;;;;22.60;16.73;;;;;;;15.31;61.50;97676.84;4158205;28;20754;-87
2022/03/29 08:57:55;;;;;;;24.33;16.00;;;;;;;15.57;60.83;97675.22;4177522;28;20652;-85
2022/03/29 08:59:59;;;;;;;20.53;15.77;;;;;;;15.87;60.60;97688.91;4156909;28;20657;-86
2022/03/29 09:02:10;;;;;;;22.47;16.63;;;;;;;16.14;59.23;97689.69;4178306;28;20655;-86
2022/03/29 09:04:16;;;;;;;21.43;15.60;;;;;;;16.29;59.83;97690.88;4162121;28;20653;-87
2022/03/29 09:06:20;;;;;;;21.00;16.63;;;;;;;16.41;58.19;97686.22;4160541;28;20660;-86
2022/03/29 09:08:23;;;;;;;21.97;15.93;;;;;;;16.55;57.92;97682.09;4160539;28;20656;-86
2022/03/29 09:10:40;;;;;;;21.93;16.10;;;;;;;16.62;58.27;97687.59;4161012;28;20741;-87
2022/03/29 09:12:46;;;;;;;21.43;15.53;;;;;;;16.54;58.17;97680.44;4160209;28;20685;-86
2022/03/29 09:14:55;;;;;;;22.80;17.40;;;;;;;16.51;58.34;97686.00;4163798;28;20757;-87
2022/03/29 09:16:59;;;;;;;23.60;16.27;;;;;;;16.43;58.25;97679.81;4159810;28;20665;-87
2022/03/29 09:19:03;;;;;;;21.90;15.50;;;;;;;16.44;59.26;97675.41;4169323;28;21303;-87
2022/03/29 09:21:11;;;;;;;25.40;17.60;;;;;;;16.39;57.07;97680.28;4142330;28;21122;-87
2022/03/29 09:23:15;;;;;;;25.80;16.90;;;;;;;16.42;57.43;97679.97;4173124;28;20685;-87
2022/03/29 09:25:20;;;;;;;23.90;17.97;;;;;;;16.52;57.86;97669.25;4154812;28;20646;-87
2022/03/29 09:27:24;;;;;;;20.80;16.30;;;;;;;16.62;57.54;97674.41;4159480;28;20681;-86
2022/03/29 09:30:06;;;;;;;22.43;15.43;;;;;;;16.76;55.56;97677.31;4140395;28;21001;-87
2022/03/29 09:32:17;;;;;;;24.17;16.23;;;;;;;16.78;57.17;97678.00;4157966;28;20684;-87
2022/03/29 09:34:21;;;;;;;24.47;16.07;;;;;;;16.77;56.07;97675.53;4141459;28;20721;-87
2022/03/29 09:36:40;;;;;;;24.47;16.70;;;;;;;16.82;56.43;97674.06;4159939;28;20669;-87
2022/03/29 09:38:45;;;;;;;21.80;16.77;;;;;;;16.85;56.32;97673.75;4158421;28;20664;-85
2022/03/29 09:40:48;;;;;;;22.87;17.30;;;;;;;16.87;56.27;97665.72;4159250;28;20724;-85
2022/03/29 09:43:11;;;;;;;24.17;16.50;;;;;;;16.85;56.23;97665.03;4156747;28;20632;-84
2022/03/29 09:45:14;;;;;;;24.30;16.53;;;;;;;16.85;57.31;97672.94;4152969;28;20657;-82